sensor_id;sensor_type;location;lat;lon;timestamp;temperature;humidity
79489;SHT31;68949;53.176;18.088;2024-02-21T00:02:21;6.03;87.77
79489;SHT31;68949;53.176;18.088;2024-02-21T00:04:48;6.00;87.86
79489;SHT31;68949;53.176;18.088;2024-02-21T00:07:14;6.02;87.96
79489;SHT31;68949;53.176;18.088;2024-02-21T00:09:41;6.04;88.00
79489;SHT31;68949;53.176;18.088;2024-02-21T00:12:08;6.04;87.96
79489;SHT31;68949;53.176;18.088;2024-02-21T00:14:35;6.06;88.02
79489;SHT31;68949;53.176;18.088;2024-02-21T00:17:01;6.09;88.04
79489;SHT31;68949;53.176;18.088;2024-02-21T00:19:28;6.11;88.04
79489;SHT31;68949;53.176;18.088;2024-02-21T00:21:55;6.09;88.11
79489;SHT31;68949;53.176;18.088;2024-02-21T00:24:21;6.08;88.20
79489;SHT31;68949;53.176;18.088;2024-02-21T00:26:48;6.05;88.27
79489;SHT31;68949;53.176;18.088;2024-02-21T00:29:15;6.06;88.32
79489;SHT31;68949;53.176;18.088;2024-02-21T00:31:41;6.09;88.32
79489;SHT31;68949;53.176;18.088;2024-02-21T00:34:08;6.09;88.32
79489;SHT31;68949;53.176;18.088;2024-02-21T00:36:36;6.09;88.38
79489;SHT31;68949;53.176;18.088;2024-02-21T00:39:03;6.10;88.40
79489;SHT31;68949;53.176;18.088;2024-02-21T00:41:30;6.11;88.40
79489;SHT31;68949;53.176;18.088;2024-02-21T00:43:57;6.12;88.40
79489;SHT31;68949;53.176;18.088;2024-02-21T00:46:23;6.10;88.42
79489;SHT31;68949;53.176;18.088;2024-02-21T00:48:50;6.08;88.45
79489;SHT31;68949;53.176;18.088;2024-02-21T00:51:17;6.08;88.46
79489;SHT31;68949;53.176;18.088;2024-02-21T00:53:46;6.11;88.47
79489;SHT31;68949;53.176;18.088;2024-02-21T00:56:12;6.10;88.49
79489;SHT31;68949;53.176;18.088;2024-02-21T00:58:39;6.14;88.51
79489;SHT31;68949;53.176;18.088;2024-02-21T01:01:06;6.13;88.45
79489;SHT31;68949;53.176;18.088;2024-02-21T01:03:33;6.11;88.50
79489;SHT31;68949;53.176;18.088;2024-02-21T01:05:59;6.07;88.60
79489;SHT31;68949;53.176;18.088;2024-02-21T01:08:26;6.05;88.67
79489;SHT31;68949;53.176;18.088;2024-02-21T01:10:53;6.04;88.71
79489;SHT31;68949;53.176;18.088;2024-02-21T01:13:20;6.05;88.79
79489;SHT31;68949;53.176;18.088;2024-02-21T01:15:46;6.06;88.80
79489;SHT31;68949;53.176;18.088;2024-02-21T01:18:13;6.08;88.81
79489;SHT31;68949;53.176;18.088;2024-02-21T01:20:40;6.11;88.80
79489;SHT31;68949;53.176;18.088;2024-02-21T01:23:07;6.09;88.79
79489;SHT31;68949;53.176;18.088;2024-02-21T01:25:35;6.07;88.82
79489;SHT31;68949;53.176;18.088;2024-02-21T01:28:02;6.09;88.91
79489;SHT31;68949;53.176;18.088;2024-02-21T01:30:29;6.11;88.88
79489;SHT31;68949;53.176;18.088;2024-02-21T01:32:56;6.10;88.88
79489;SHT31;68949;53.176;18.088;2024-02-21T01:35:23;6.13;88.91
79489;SHT31;68949;53.176;18.088;2024-02-21T01:37:50;6.15;88.92
79489;SHT31;68949;53.176;18.088;2024-02-21T01:40:18;6.14;88.92
79489;SHT31;68949;53.176;18.088;2024-02-21T01:42:44;6.12;88.94
79489;SHT31;68949;53.176;18.088;2024-02-21T01:45:12;6.13;88.93
79489;SHT31;68949;53.176;18.088;2024-02-21T01:47:39;6.16;88.92
79489;SHT31;68949;53.176;18.088;2024-02-21T01:50:06;6.18;88.90
79489;SHT31;68949;53.176;18.088;2024-02-21T01:52:34;6.20;88.91
79489;SHT31;68949;53.176;18.088;2024-02-21T01:55:02;6.23;88.87
79489;SHT31;68949;53.176;18.088;2024-02-21T01:57:29;6.21;88.86
79489;SHT31;68949;53.176;18.088;2024-02-21T01:59:56;6.20;88.91
79489;SHT31;68949;53.176;18.088;2024-02-21T02:02:23;6.19;88.93
79489;SHT31;68949;53.176;18.088;2024-02-21T02:04:51;6.16;88.93
79489;SHT31;68949;53.176;18.088;2024-02-21T02:07:18;6.14;88.99
79489;SHT31;68949;53.176;18.088;2024-02-21T02:09:45;6.14;89.01
79489;SHT31;68949;53.176;18.088;2024-02-21T02:12:12;6.15;89.03
79489;SHT31;68949;53.176;18.088;2024-02-21T02:14:39;6.14;89.03
79489;SHT31;68949;53.176;18.088;2024-02-21T02:17:05;6.14;89.05
79489;SHT31;68949;53.176;18.088;2024-02-21T02:19:32;6.13;89.10
79489;SHT31;68949;53.176;18.088;2024-02-21T02:22:09;6.13;89.09
79489;SHT31;68949;53.176;18.088;2024-02-21T02:24:44;6.13;89.10
79489;SHT31;68949;53.176;18.088;2024-02-21T02:27:10;6.15;89.06
79489;SHT31;68949;53.176;18.088;2024-02-21T02:29:37;6.17;89.00
79489;SHT31;68949;53.176;18.088;2024-02-21T02:32:04;6.17;88.97
79489;SHT31;68949;53.176;18.088;2024-02-21T02:34:31;6.16;88.99
79489;SHT31;68949;53.176;18.088;2024-02-21T02:36:58;6.14;88.99
79489;SHT31;68949;53.176;18.088;2024-02-21T02:39:24;6.15;88.95
79489;SHT31;68949;53.176;18.088;2024-02-21T02:41:51;6.14;88.94
79489;SHT31;68949;53.176;18.088;2024-02-21T02:44:18;6.13;88.98
79489;SHT31;68949;53.176;18.088;2024-02-21T02:46:44;6.14;88.99
79489;SHT31;68949;53.176;18.088;2024-02-21T02:49:11;6.17;88.93
79489;SHT31;68949;53.176;18.088;2024-02-21T02:51:41;6.14;88.92
79489;SHT31;68949;53.176;18.088;2024-02-21T02:54:10;6.11;88.98
79489;SHT31;68949;53.176;18.088;2024-02-21T02:56:38;6.11;89.00
79489;SHT31;68949;53.176;18.088;2024-02-21T02:59:05;6.13;89.00
79489;SHT31;68949;53.176;18.088;2024-02-21T03:01:33;6.14;89.00
79489;SHT31;68949;53.176;18.088;2024-02-21T03:04:01;6.11;89.00
79489;SHT31;68949;53.176;18.088;2024-02-21T03:06:28;6.12;89.02
79489;SHT31;68949;53.176;18.088;2024-02-21T03:08:55;6.12;89.07
79489;SHT31;68949;53.176;18.088;2024-02-21T03:11:22;6.13;89.04
79489;SHT31;68949;53.176;18.088;2024-02-21T03:13:55;6.09;89.09
79489;SHT31;68949;53.176;18.088;2024-02-21T03:16:24;6.07;89.15
79489;SHT31;68949;53.176;18.088;2024-02-21T03:18:54;6.04;89.23
79489;SHT31;68949;53.176;18.088;2024-02-21T03:21:20;6.01;89.30
79489;SHT31;68949;53.176;18.088;2024-02-21T03:23:47;6.03;89.31
79489;SHT31;68949;53.176;18.088;2024-02-21T03:26:14;6.04;89.30
79489;SHT31;68949;53.176;18.088;2024-02-21T03:28:43;6.01;89.36
79489;SHT31;68949;53.176;18.088;2024-02-21T03:31:14;6.01;89.40
79489;SHT31;68949;53.176;18.088;2024-02-21T03:33:42;6.01;89.40
79489;SHT31;68949;53.176;18.088;2024-02-21T03:36:15;6.01;89.43
79489;SHT31;68949;53.176;18.088;2024-02-21T03:38:42;6.01;89.50
79489;SHT31;68949;53.176;18.088;2024-02-21T03:41:08;6.01;89.50
79489;SHT31;68949;53.176;18.088;2024-02-21T03:43:37;6.03;89.51
79489;SHT31;68949;53.176;18.088;2024-02-21T03:46:05;6.04;89.52
79489;SHT31;68949;53.176;18.088;2024-02-21T03:48:33;6.04;89.56
79489;SHT31;68949;53.176;18.088;2024-02-21T03:50:59;6.04;89.60
79489;SHT31;68949;53.176;18.088;2024-02-21T03:53:26;6.04;89.68
79489;SHT31;68949;53.176;18.088;2024-02-21T03:55:53;6.02;89.71
79489;SHT31;68949;53.176;18.088;2024-02-21T03:58:21;6.02;89.70
79489;SHT31;68949;53.176;18.088;2024-02-21T04:00:48;6.03;89.70
79489;SHT31;68949;53.176;18.088;2024-02-21T04:03:14;6.04;89.72
79489;SHT31;68949;53.176;18.088;2024-02-21T04:05:41;6.05;89.73
79489;SHT31;68949;53.176;18.088;2024-02-21T04:08:08;6.03;89.79
79489;SHT31;68949;53.176;18.088;2024-02-21T04:10:34;6.03;89.82
79489;SHT31;68949;53.176;18.088;2024-02-21T04:13:01;6.04;89.87
79489;SHT31;68949;53.176;18.088;2024-02-21T04:15:28;6.06;89.88
79489;SHT31;68949;53.176;18.088;2024-02-21T04:17:55;6.08;89.89
79489;SHT31;68949;53.176;18.088;2024-02-21T04:20:22;6.08;89.85
79489;SHT31;68949;53.176;18.088;2024-02-21T04:22:48;6.07;89.87
79489;SHT31;68949;53.176;18.088;2024-02-21T04:25:15;6.09;89.90
79489;SHT31;68949;53.176;18.088;2024-02-21T04:27:42;6.09;89.89
79489;SHT31;68949;53.176;18.088;2024-02-21T04:30:09;6.12;89.86
79489;SHT31;68949;53.176;18.088;2024-02-21T04:32:36;6.11;89.83
79489;SHT31;68949;53.176;18.088;2024-02-21T04:35:03;6.12;89.84
79489;SHT31;68949;53.176;18.088;2024-02-21T04:37:30;6.13;89.80
79489;SHT31;68949;53.176;18.088;2024-02-21T04:39:57;6.12;89.82
79489;SHT31;68949;53.176;18.088;2024-02-21T04:42:24;6.12;89.87
79489;SHT31;68949;53.176;18.088;2024-02-21T04:44:50;6.12;89.89
79489;SHT31;68949;53.176;18.088;2024-02-21T04:47:18;6.13;89.88
79489;SHT31;68949;53.176;18.088;2024-02-21T04:49:46;6.11;89.88
79489;SHT31;68949;53.176;18.088;2024-02-21T04:52:13;6.12;89.90
79489;SHT31;68949;53.176;18.088;2024-02-21T04:54:39;6.13;89.93
79489;SHT31;68949;53.176;18.088;2024-02-21T04:57:06;6.14;89.90
79489;SHT31;68949;53.176;18.088;2024-02-21T04:59:33;6.14;89.91
79489;SHT31;68949;53.176;18.088;2024-02-21T05:02:02;6.15;89.90
79489;SHT31;68949;53.176;18.088;2024-02-21T05:04:29;6.14;89.91
79489;SHT31;68949;53.176;18.088;2024-02-21T05:06:56;6.12;89.94
79489;SHT31;68949;53.176;18.088;2024-02-21T05:09:23;6.11;89.98
79489;SHT31;68949;53.176;18.088;2024-02-21T05:11:49;6.10;89.98
79489;SHT31;68949;53.176;18.088;2024-02-21T05:14:16;6.09;89.98
79489;SHT31;68949;53.176;18.088;2024-02-21T05:16:43;6.10;90.00
79489;SHT31;68949;53.176;18.088;2024-02-21T05:19:09;6.11;90.00
79489;SHT31;68949;53.176;18.088;2024-02-21T05:21:36;6.14;89.97
79489;SHT31;68949;53.176;18.088;2024-02-21T05:24:03;6.15;89.91
79489;SHT31;68949;53.176;18.088;2024-02-21T05:26:30;6.14;89.90
79489;SHT31;68949;53.176;18.088;2024-02-21T05:28:57;6.17;89.92
79489;SHT31;68949;53.176;18.088;2024-02-21T05:31:25;6.16;89.89
79489;SHT31;68949;53.176;18.088;2024-02-21T05:33:54;6.16;89.90
79489;SHT31;68949;53.176;18.088;2024-02-21T05:36:21;6.17;89.92
79489;SHT31;68949;53.176;18.088;2024-02-21T05:38:48;6.19;89.89
79489;SHT31;68949;53.176;18.088;2024-02-21T05:41:14;6.17;89.83
79489;SHT31;68949;53.176;18.088;2024-02-21T05:43:41;6.12;89.93
79489;SHT31;68949;53.176;18.088;2024-02-21T05:46:08;6.11;90.00
79489;SHT31;68949;53.176;18.088;2024-02-21T05:48:34;6.11;90.03
79489;SHT31;68949;53.176;18.088;2024-02-21T05:51:01;6.10;90.10
79489;SHT31;68949;53.176;18.088;2024-02-21T05:53:29;6.10;90.10
79489;SHT31;68949;53.176;18.088;2024-02-21T05:55:56;6.10;90.11
79489;SHT31;68949;53.176;18.088;2024-02-21T05:58:22;6.11;90.11
79489;SHT31;68949;53.176;18.088;2024-02-21T06:00:50;6.12;90.10
79489;SHT31;68949;53.176;18.088;2024-02-21T06:03:17;6.13;90.10
79489;SHT31;68949;53.176;18.088;2024-02-21T06:05:44;6.13;90.12
79489;SHT31;68949;53.176;18.088;2024-02-21T06:08:10;6.15;90.18
79489;SHT31;68949;53.176;18.088;2024-02-21T06:10:37;6.18;90.11
79489;SHT31;68949;53.176;18.088;2024-02-21T06:13:04;6.17;90.11
79489;SHT31;68949;53.176;18.088;2024-02-21T06:15:30;6.18;90.17
79489;SHT31;68949;53.176;18.088;2024-02-21T06:17:57;6.20;90.16
79489;SHT31;68949;53.176;18.088;2024-02-21T06:20:24;6.20;90.14
79489;SHT31;68949;53.176;18.088;2024-02-21T06:22:50;6.22;90.11
79489;SHT31;68949;53.176;18.088;2024-02-21T06:25:17;6.20;90.14
79489;SHT31;68949;53.176;18.088;2024-02-21T06:27:44;6.22;90.17
79489;SHT31;68949;53.176;18.088;2024-02-21T06:30:11;6.24;90.10
79489;SHT31;68949;53.176;18.088;2024-02-21T06:32:38;6.26;90.13
79489;SHT31;68949;53.176;18.088;2024-02-21T06:35:05;6.28;90.10
79489;SHT31;68949;53.176;18.088;2024-02-21T06:37:32;6.30;90.11
79489;SHT31;68949;53.176;18.088;2024-02-21T06:39:59;6.28;90.09
79489;SHT31;68949;53.176;18.088;2024-02-21T06:42:26;6.29;90.09
79489;SHT31;68949;53.176;18.088;2024-02-21T06:44:53;6.29;90.10
79489;SHT31;68949;53.176;18.088;2024-02-21T06:47:20;6.35;90.08
79489;SHT31;68949;53.176;18.088;2024-02-21T06:49:50;6.38;90.00
79489;SHT31;68949;53.176;18.088;2024-02-21T06:52:18;6.40;89.91
79489;SHT31;68949;53.176;18.088;2024-02-21T06:54:46;6.37;89.90
79489;SHT31;68949;53.176;18.088;2024-02-21T06:57:13;6.35;89.93
79489;SHT31;68949;53.176;18.088;2024-02-21T06:59:43;6.39;89.94
79489;SHT31;68949;53.176;18.088;2024-02-21T07:02:10;6.39;89.90
79489;SHT31;68949;53.176;18.088;2024-02-21T07:04:36;6.38;89.92
79489;SHT31;68949;53.176;18.088;2024-02-21T07:07:03;6.40;89.94
79489;SHT31;68949;53.176;18.088;2024-02-21T07:09:30;6.44;89.94
79489;SHT31;68949;53.176;18.088;2024-02-21T07:11:58;6.46;89.89
79489;SHT31;68949;53.176;18.088;2024-02-21T07:14:25;6.48;89.83
79489;SHT31;68949;53.176;18.088;2024-02-21T07:16:54;6.51;89.81
79489;SHT31;68949;53.176;18.088;2024-02-21T07:19:23;6.50;89.72
79489;SHT31;68949;53.176;18.088;2024-02-21T07:21:50;6.50;89.79
79489;SHT31;68949;53.176;18.088;2024-02-21T07:24:17;6.52;89.80
79489;SHT31;68949;53.176;18.088;2024-02-21T07:26:44;6.54;89.74
79489;SHT31;68949;53.176;18.088;2024-02-21T07:29:11;6.52;89.70
79489;SHT31;68949;53.176;18.088;2024-02-21T07:31:41;6.50;89.71
79489;SHT31;68949;53.176;18.088;2024-02-21T07:34:13;6.49;89.77
79489;SHT31;68949;53.176;18.088;2024-02-21T07:36:41;6.49;89.77
79489;SHT31;68949;53.176;18.088;2024-02-21T07:39:09;6.49;89.82
79489;SHT31;68949;53.176;18.088;2024-02-21T07:41:36;6.49;89.80
79489;SHT31;68949;53.176;18.088;2024-02-21T07:44:04;6.49;89.80
79489;SHT31;68949;53.176;18.088;2024-02-21T07:46:31;6.51;89.83
79489;SHT31;68949;53.176;18.088;2024-02-21T07:49:00;6.51;89.80
79489;SHT31;68949;53.176;18.088;2024-02-21T07:51:27;6.54;89.80
79489;SHT31;68949;53.176;18.088;2024-02-21T07:53:55;6.56;89.78
79489;SHT31;68949;53.176;18.088;2024-02-21T07:56:22;6.57;89.87
79489;SHT31;68949;53.176;18.088;2024-02-21T07:58:48;6.57;89.90
79489;SHT31;68949;53.176;18.088;2024-02-21T08:01:20;6.58;89.90
79489;SHT31;68949;53.176;18.088;2024-02-21T08:03:47;6.58;89.90
79489;SHT31;68949;53.176;18.088;2024-02-21T08:06:14;6.59;89.90
79489;SHT31;68949;53.176;18.088;2024-02-21T08:08:40;6.59;89.90
79489;SHT31;68949;53.176;18.088;2024-02-21T08:11:07;6.61;89.91
79489;SHT31;68949;53.176;18.088;2024-02-21T08:13:34;6.61;89.90
79489;SHT31;68949;53.176;18.088;2024-02-21T08:16:01;6.62;89.92
79489;SHT31;68949;53.176;18.088;2024-02-21T08:18:27;6.63;89.96
79489;SHT31;68949;53.176;18.088;2024-02-21T08:20:54;6.63;89.97
79489;SHT31;68949;53.176;18.088;2024-02-21T08:23:23;6.65;90.06
79489;SHT31;68949;53.176;18.088;2024-02-21T08:25:50;6.65;90.08
79489;SHT31;68949;53.176;18.088;2024-02-21T08:28:17;6.66;90.10
79489;SHT31;68949;53.176;18.088;2024-02-21T08:30:44;6.68;90.10
79489;SHT31;68949;53.176;18.088;2024-02-21T08:33:17;6.71;90.12
79489;SHT31;68949;53.176;18.088;2024-02-21T08:35:44;6.73;90.09
79489;SHT31;68949;53.176;18.088;2024-02-21T08:38:10;6.74;90.06
79489;SHT31;68949;53.176;18.088;2024-02-21T08:40:37;6.74;90.06
79489;SHT31;68949;53.176;18.088;2024-02-21T08:43:04;6.77;90.07
79489;SHT31;68949;53.176;18.088;2024-02-21T08:45:31;6.78;89.96
79489;SHT31;68949;53.176;18.088;2024-02-21T08:47:57;6.78;90.00
79489;SHT31;68949;53.176;18.088;2024-02-21T08:50:24;6.77;89.98
79489;SHT31;68949;53.176;18.088;2024-02-21T08:52:51;6.75;90.00
79489;SHT31;68949;53.176;18.088;2024-02-21T08:55:18;6.73;90.00
79489;SHT31;68949;53.176;18.088;2024-02-21T08:57:45;6.73;90.00
79489;SHT31;68949;53.176;18.088;2024-02-21T09:00:12;6.73;89.98
79489;SHT31;68949;53.176;18.088;2024-02-21T09:02:40;6.74;90.00
79489;SHT31;68949;53.176;18.088;2024-02-21T09:05:11;6.77;90.01
79489;SHT31;68949;53.176;18.088;2024-02-21T09:07:38;6.78;90.00
79489;SHT31;68949;53.176;18.088;2024-02-21T09:10:04;6.81;89.94
79489;SHT31;68949;53.176;18.088;2024-02-21T09:12:32;6.86;89.94
79489;SHT31;68949;53.176;18.088;2024-02-21T09:14:59;6.87;89.91
79489;SHT31;68949;53.176;18.088;2024-02-21T09:17:26;6.87;89.92
79489;SHT31;68949;53.176;18.088;2024-02-21T09:19:55;6.89;89.90
79489;SHT31;68949;53.176;18.088;2024-02-21T09:22:25;6.90;89.83
79489;SHT31;68949;53.176;18.088;2024-02-21T09:24:52;6.90;89.82
79489;SHT31;68949;53.176;18.088;2024-02-21T09:27:19;6.91;89.80
79489;SHT31;68949;53.176;18.088;2024-02-21T09:29:45;6.90;89.80
79489;SHT31;68949;53.176;18.088;2024-02-21T09:32:12;6.91;89.80
79489;SHT31;68949;53.176;18.088;2024-02-21T09:34:40;6.93;89.72
79489;SHT31;68949;53.176;18.088;2024-02-21T09:37:07;6.93;89.72
79489;SHT31;68949;53.176;18.088;2024-02-21T09:39:34;6.95;89.73
79489;SHT31;68949;53.176;18.088;2024-02-21T09:42:11;6.97;89.77
79489;SHT31;68949;53.176;18.088;2024-02-21T09:44:38;7.00;89.80
79489;SHT31;68949;53.176;18.088;2024-02-21T09:47:10;7.01;89.80
79489;SHT31;68949;53.176;18.088;2024-02-21T09:49:46;7.02;89.75
79489;SHT31;68949;53.176;18.088;2024-02-21T09:52:14;7.03;89.73
79489;SHT31;68949;53.176;18.088;2024-02-21T09:54:43;7.03;89.77
79489;SHT31;68949;53.176;18.088;2024-02-21T09:57:11;7.03;89.80
79489;SHT31;68949;53.176;18.088;2024-02-21T09:59:39;7.03;89.83
79489;SHT31;68949;53.176;18.088;2024-02-21T10:02:07;7.01;89.85
79489;SHT31;68949;53.176;18.088;2024-02-21T10:04:34;7.01;89.94
79489;SHT31;68949;53.176;18.088;2024-02-21T10:07:05;7.01;90.04
79489;SHT31;68949;53.176;18.088;2024-02-21T10:09:31;7.04;90.03
79489;SHT31;68949;53.176;18.088;2024-02-21T10:12:09;7.05;89.98
79489;SHT31;68949;53.176;18.088;2024-02-21T10:14:38;7.07;90.00
79489;SHT31;68949;53.176;18.088;2024-02-21T10:17:05;7.08;90.00
79489;SHT31;68949;53.176;18.088;2024-02-21T10:19:35;7.08;89.99
79489;SHT31;68949;53.176;18.088;2024-02-21T10:22:07;7.11;90.00
79489;SHT31;68949;53.176;18.088;2024-02-21T10:24:35;7.12;89.98
79489;SHT31;68949;53.176;18.088;2024-02-21T10:27:09;7.16;89.99
79489;SHT31;68949;53.176;18.088;2024-02-21T10:29:39;7.17;89.91
79489;SHT31;68949;53.176;18.088;2024-02-21T10:32:08;7.17;89.94
79489;SHT31;68949;53.176;18.088;2024-02-21T10:34:40;7.17;89.94
79489;SHT31;68949;53.176;18.088;2024-02-21T10:37:09;7.19;89.92
79489;SHT31;68949;53.176;18.088;2024-02-21T10:39:38;7.22;89.93
79489;SHT31;68949;53.176;18.088;2024-02-21T10:42:10;7.24;89.87
79489;SHT31;68949;53.176;18.088;2024-02-21T10:44:38;7.28;89.85
79489;SHT31;68949;53.176;18.088;2024-02-21T10:47:10;7.28;89.90
79489;SHT31;68949;53.176;18.088;2024-02-21T10:49:40;7.27;89.93
79489;SHT31;68949;53.176;18.088;2024-02-21T10:52:14;7.27;89.94
79489;SHT31;68949;53.176;18.088;2024-02-21T10:57:38;7.37;89.99
79489;SHT31;68949;53.176;18.088;2024-02-21T11:00:05;7.41;89.98
79489;SHT31;68949;53.176;18.088;2024-02-21T11:02:36;7.44;89.98
79489;SHT31;68949;53.176;18.088;2024-02-21T11:05:04;7.45;89.88
79489;SHT31;68949;53.176;18.088;2024-02-21T11:07:35;7.46;89.88
79489;SHT31;68949;53.176;18.088;2024-02-21T11:10:04;7.46;89.89
79489;SHT31;68949;53.176;18.088;2024-02-21T11:12:33;7.48;89.90
79489;SHT31;68949;53.176;18.088;2024-02-21T11:15:03;7.52;89.92
79489;SHT31;68949;53.176;18.088;2024-02-21T11:17:34;7.51;89.89
79489;SHT31;68949;53.176;18.088;2024-02-21T11:20:10;7.52;89.86
79489;SHT31;68949;53.176;18.088;2024-02-21T11:22:41;7.53;89.90
79489;SHT31;68949;53.176;18.088;2024-02-21T11:25:10;7.53;89.85
79489;SHT31;68949;53.176;18.088;2024-02-21T11:27:45;7.54;89.91
79489;SHT31;68949;53.176;18.088;2024-02-21T11:30:13;7.54;89.91
79489;SHT31;68949;53.176;18.088;2024-02-21T11:32:41;7.54;89.91
79489;SHT31;68949;53.176;18.088;2024-02-21T11:35:07;7.56;89.92
79489;SHT31;68949;53.176;18.088;2024-02-21T11:37:35;7.56;89.94
79489;SHT31;68949;53.176;18.088;2024-02-21T11:40:06;7.57;89.91
79489;SHT31;68949;53.176;18.088;2024-02-21T11:42:36;7.58;89.86
79489;SHT31;68949;53.176;18.088;2024-02-21T11:45:02;7.61;89.78
79489;SHT31;68949;53.176;18.088;2024-02-21T11:47:30;7.66;89.80
79489;SHT31;68949;53.176;18.088;2024-02-21T11:49:57;7.72;89.77
79489;SHT31;68949;53.176;18.088;2024-02-21T11:52:25;7.73;89.62
79489;SHT31;68949;53.176;18.088;2024-02-21T11:54:52;7.75;89.59
79489;SHT31;68949;53.176;18.088;2024-02-21T11:57:20;7.75;89.56
79489;SHT31;68949;53.176;18.088;2024-02-21T11:59:47;7.75;89.50
79489;SHT31;68949;53.176;18.088;2024-02-21T12:02:16;7.78;89.50
79489;SHT31;68949;53.176;18.088;2024-02-21T12:04:43;7.81;89.42
79489;SHT31;68949;53.176;18.088;2024-02-21T12:07:10;7.85;89.44
79489;SHT31;68949;53.176;18.088;2024-02-21T12:09:37;7.84;89.39
79489;SHT31;68949;53.176;18.088;2024-02-21T12:12:04;7.83;89.31
79489;SHT31;68949;53.176;18.088;2024-02-21T12:14:33;7.83;89.40
79489;SHT31;68949;53.176;18.088;2024-02-21T12:17:02;7.84;89.37
79489;SHT31;68949;53.176;18.088;2024-02-21T12:19:31;7.84;89.34
79489;SHT31;68949;53.176;18.088;2024-02-21T12:22:00;7.86;89.30
79489;SHT31;68949;53.176;18.088;2024-02-21T12:24:28;7.88;89.25
79489;SHT31;68949;53.176;18.088;2024-02-21T12:26:56;7.89;89.14
79489;SHT31;68949;53.176;18.088;2024-02-21T12:29:24;7.90;89.10
79489;SHT31;68949;53.176;18.088;2024-02-21T12:31:52;7.90;89.11
79489;SHT31;68949;53.176;18.088;2024-02-21T12:34:21;7.92;89.20
79489;SHT31;68949;53.176;18.088;2024-02-21T12:36:49;7.95;89.14
79489;SHT31;68949;53.176;18.088;2024-02-21T12:39:16;7.96;89.11
79489;SHT31;68949;53.176;18.088;2024-02-21T12:41:42;7.97;89.08
79489;SHT31;68949;53.176;18.088;2024-02-21T12:44:10;7.98;89.10
79489;SHT31;68949;53.176;18.088;2024-02-21T12:46:38;8.00;89.07
79489;SHT31;68949;53.176;18.088;2024-02-21T12:49:08;8.01;89.03
79489;SHT31;68949;53.176;18.088;2024-02-21T12:51:35;8.01;89.00
79489;SHT31;68949;53.176;18.088;2024-02-21T12:54:03;8.01;88.98
79489;SHT31;68949;53.176;18.088;2024-02-21T12:56:29;7.99;88.99
79489;SHT31;68949;53.176;18.088;2024-02-21T12:58:57;7.97;89.07
79489;SHT31;68949;53.176;18.088;2024-02-21T13:01:24;7.95;89.12
79489;SHT31;68949;53.176;18.088;2024-02-21T13:03:53;7.94;89.23
79489;SHT31;68949;53.176;18.088;2024-02-21T13:06:20;7.95;89.30
79489;SHT31;68949;53.176;18.088;2024-02-21T13:08:47;7.96;89.31
79489;SHT31;68949;53.176;18.088;2024-02-21T13:11:13;7.96;89.33
79489;SHT31;68949;53.176;18.088;2024-02-21T13:13:40;7.96;89.41
79489;SHT31;68949;53.176;18.088;2024-02-21T13:16:07;7.95;89.46
79489;SHT31;68949;53.176;18.088;2024-02-21T13:18:37;7.95;89.50
79489;SHT31;68949;53.176;18.088;2024-02-21T13:21:10;7.95;89.50
79489;SHT31;68949;53.176;18.088;2024-02-21T13:23:37;7.94;89.56
79489;SHT31;68949;53.176;18.088;2024-02-21T13:26:04;7.95;89.60
79489;SHT31;68949;53.176;18.088;2024-02-21T13:28:33;7.95;89.62
79489;SHT31;68949;53.176;18.088;2024-02-21T13:31:00;7.95;89.67
79489;SHT31;68949;53.176;18.088;2024-02-21T13:33:28;7.96;89.68
79489;SHT31;68949;53.176;18.088;2024-02-21T13:35:55;7.97;89.67
79489;SHT31;68949;53.176;18.088;2024-02-21T13:38:22;7.98;89.66
79489;SHT31;68949;53.176;18.088;2024-02-21T13:40:50;7.96;89.68
79489;SHT31;68949;53.176;18.088;2024-02-21T13:43:17;7.94;89.77
79489;SHT31;68949;53.176;18.088;2024-02-21T13:45:45;7.93;89.83
79489;SHT31;68949;53.176;18.088;2024-02-21T13:48:24;7.93;89.83
79489;SHT31;68949;53.176;18.088;2024-02-21T13:50:53;7.93;89.82
79489;SHT31;68949;53.176;18.088;2024-02-21T13:53:19;7.93;89.89
79489;SHT31;68949;53.176;18.088;2024-02-21T13:55:47;7.93;89.92
79489;SHT31;68949;53.176;18.088;2024-02-21T13:58:15;7.92;89.94
79489;SHT31;68949;53.176;18.088;2024-02-21T14:00:43;7.91;90.00
79489;SHT31;68949;53.176;18.088;2024-02-21T14:03:10;7.92;90.00
79489;SHT31;68949;53.176;18.088;2024-02-21T14:05:37;7.93;90.00
79489;SHT31;68949;53.176;18.088;2024-02-21T14:08:06;7.92;90.02
79489;SHT31;68949;53.176;18.088;2024-02-21T14:10:33;7.92;89.97
79489;SHT31;68949;53.176;18.088;2024-02-21T14:13:00;7.91;90.00
79489;SHT31;68949;53.176;18.088;2024-02-21T14:15:27;7.91;89.99
79489;SHT31;68949;53.176;18.088;2024-02-21T14:17:53;7.91;90.00
79489;SHT31;68949;53.176;18.088;2024-02-21T14:20:22;7.89;90.00
79489;SHT31;68949;53.176;18.088;2024-02-21T14:22:48;7.89;90.04
79489;SHT31;68949;53.176;18.088;2024-02-21T14:25:15;7.89;90.00
79489;SHT31;68949;53.176;18.088;2024-02-21T14:27:42;7.89;90.03
79489;SHT31;68949;53.176;18.088;2024-02-21T14:30:10;7.88;90.02
79489;SHT31;68949;53.176;18.088;2024-02-21T14:32:37;7.88;90.03
79489;SHT31;68949;53.176;18.088;2024-02-21T14:35:04;7.89;90.00
79489;SHT31;68949;53.176;18.088;2024-02-21T14:37:34;7.88;90.07
79489;SHT31;68949;53.176;18.088;2024-02-21T14:40:01;7.89;90.10
79489;SHT31;68949;53.176;18.088;2024-02-21T14:42:28;7.91;90.05
79489;SHT31;68949;53.176;18.088;2024-02-21T14:44:54;7.93;90.00
79489;SHT31;68949;53.176;18.088;2024-02-21T14:47:30;7.92;90.00
79489;SHT31;68949;53.176;18.088;2024-02-21T14:49:58;7.94;90.00
79489;SHT31;68949;53.176;18.088;2024-02-21T14:52:25;7.95;90.00
79489;SHT31;68949;53.176;18.088;2024-02-21T14:54:53;7.94;89.98
79489;SHT31;68949;53.176;18.088;2024-02-21T14:57:20;7.93;89.91
79489;SHT31;68949;53.176;18.088;2024-02-21T14:59:48;7.95;90.00
79489;SHT31;68949;53.176;18.088;2024-02-21T15:02:16;7.95;89.93
79489;SHT31;68949;53.176;18.088;2024-02-21T15:04:44;7.93;89.91
79489;SHT31;68949;53.176;18.088;2024-02-21T15:07:10;7.90;89.89
79489;SHT31;68949;53.176;18.088;2024-02-21T15:09:37;7.87;89.85
79489;SHT31;68949;53.176;18.088;2024-02-21T15:12:05;7.84;89.90
79489;SHT31;68949;53.176;18.088;2024-02-21T15:14:32;7.82;89.91
79489;SHT31;68949;53.176;18.088;2024-02-21T15:16:59;7.82;89.91
79489;SHT31;68949;53.176;18.088;2024-02-21T15:19:26;7.83;89.93
79489;SHT31;68949;53.176;18.088;2024-02-21T15:21:52;7.83;89.90
79489;SHT31;68949;53.176;18.088;2024-02-21T15:24:20;7.81;89.93
79489;SHT31;68949;53.176;18.088;2024-02-21T15:26:46;7.82;89.94
79489;SHT31;68949;53.176;18.088;2024-02-21T15:29:13;7.81;89.90
79489;SHT31;68949;53.176;18.088;2024-02-21T15:31:40;7.80;89.90
79489;SHT31;68949;53.176;18.088;2024-02-21T15:34:13;7.80;89.86
79489;SHT31;68949;53.176;18.088;2024-02-21T15:36:44;7.80;89.87